AirNav   Phillips 66 Aviation Fuel
 
 976 users online  

M66 Alfred Schroeder Field Airport
Hillsboro, Kansas, USA


FAA INFORMATION EFFECTIVE 07 DECEMBER 2017

Location

FAA Identifier: M66
Lat/Long: 38-20-29.6550N / 097-12-49.9400W
38-20.494250N / 097-12.832333W
38.3415708 / -97.2138722
(estimated)
Elevation: 1434 ft. / 437.1 m (surveyed)
Variation: 07E (1985)
Time zone: UTC -6 (UTC -5 during Daylight Saving Time)
Zip code: 67063

Airport Operations

Airport use: Open to the public
Activation date: 01/1952
Control tower: no
ARTCC: KANSAS CITY CENTER
FSS: WICHITA FLIGHT SERVICE STATION
NOTAMs facility: ICT (NOTAM-D service available)
Attendance: UNATNDD
Wind indicator: yes
Segmented circle: no
Lights: ACTVT LIRL RY 17/35; PAPI RYS 17 & 35 - CTAF.
Beacon: white-green (lighted land airport)
Operates sunset to sunrise.

Airport Communications

CTAF: 122.9
WX AWOS-3PT at EWK (17 nm S): 123.875 (316-283-8789)

Nearby radio navigation aids

VOR radial/distance  VOR name  Freq  Var
HUTr055/39.8HUTCHINSON VOR/DME116.8004E
ICTr019/39.8WICHITA VORTAC113.8007E
SLNr144/39.9SALINA VORTAC117.1007E

 
NDB name  Hdg/Dist  Freq  Var  ID
HARVS008/12.239506ECA -.-. .-
NEWTON004/16.928106EEWK . .-- -.-
HERINGTON216/28.340706EHRU .... .-. ..-

Airport Services

Fuel available: 100LL
SELF-SVC 100LL FUEL AVBL 24 HRS WITH CREDIT CARD.
Parking: hangars and tiedowns
Airframe service: NONE
Powerplant service: NONE
Bottled oxygen: NONE
Bulk oxygen: NONE

Runway Information

Runway 17/35

Dimensions: 3229 x 44 ft. / 984 x 13 m
RY 17/35 TURNAROUND & RUNUP AREA ON APCH TO RY 35 EXTDD APRXLY 23 FT.
Surface: asphalt, in good condition
Runway edge lights: low intensity
Gradient: 0.6% UP N.
RUNWAY 17  RUNWAY 35
Latitude: 38-20.760000N38-20.228500N
Longitude: 097-12.818833W097-12.845833W
Elevation: 1434.0 ft.1416.0 ft.
Gradient: 0.6% UP
Traffic pattern: leftleft
Markings: numbers only, in fair conditionnumbers only, in fair condition
Visual slope indicator: 4-light PAPI on left (3.75 degrees glide path)4-light PAPI on left (3.75 degrees glide path)
Touchdown point: yes, no lightsyes, no lights
Obstructions: 15 ft. road, 702 ft. from runway, 33:1 slope to clear33 ft. trees, 1228 ft. from runway, 31:1 slope to clear
29 FT TREES 130 FT L & 129 FT R ARE INSIDE OF THE PRIMARY SFC BUT DO IMPACT THE TRANSITIONAL ZONE FOR THE APCH TO RY 35.

Helipad H1

Dimensions: 40 x 40 ft. / 12 x 12 m
Surface: unknown surface
Traffic pattern: leftleft
Markings: basic, in good condition
Obstructions: bldg, lighted

Airport Ownership and Management from official FAA records

Ownership: Publicly-owned
Owner: CITY OF HILLSBORO
118 EAST GRAND
HILLSBORO, KS 67063
Phone 620-947-3162
Manager: LARRY PAINE
118 EAST GRAND
HILLSBORO, KS 67063
Phone 620-947-3162
CITY ADMINISTRATOR.

Airport Operational Statistics

Aircraft based on the field: 7
Single engine airplanes: 7
    
Aircraft operations: avg 96/week *
50% transient general aviation
50% local general aviation
* for 12-month period ending 28 September 2016

Additional Remarks

ULTRALIGHT ACTIVITY INVOF ARPT.
PHONE AVBL 24 HRS IN PILOTS LOUNGE; (620) 947-8970.

Instrument Procedures

There are no published instrument procedures at M66.

Some nearby airports with instrument procedures:

47K - Moundridge Municipal Airport (16 nm SW)
KEWK - Newton City/County Airport (17 nm S)
KMPR - Mc Pherson Airport (22 nm W)
KHRU - Herington Regional Airport (28 nm NE)
K78 - Abilene Municipal Airport (34 nm N)
 
Loc | Ops | Rwys | IFR | FBO | Links
Com | Nav | Svcs | Stats | Notes

Kansas City Aviation Department
 
Area around M66 (Alfred Schroeder Field Airport)
 
Road maps at: MapQuest Bing Google
 
Aerial photo
WARNING: Photo may not be current or correct
Aerial photo of M66 (Alfred Schroeder Field Airport)
Do you have a better or more recent aerial photo of Alfred Schroeder Field Airport that you would like to share? If so, please send us your photo.

 
Sectional chart

 
Airport distance calculator
Flying to Alfred Schroeder Field Airport? Find the distance to fly.

From to M66

Sunrise and sunset
Times for 16-Dec-2017
 Local
(UTC-6)
 Zulu
(UTC)
Morning civil twilight07:1113:11
Sunrise07:4013:40
Sunset17:0923:09
Evening civil twilight17:3823:38

Current date and time
Zulu (UTC)  16-Dec-2017 18:07:34
Local (UTC-6)  16-Dec-2017 12:07:34
 
METAR
KEWK 
19nm S 
161756Z AUTO 19017KT 10SM CLR 11/M03 A2985 RMK AO2 SLP111 T01111028 10111 20006 58001
KSLN 
33nm NW 
161753Z 18011KT 10SM CLR 12/M02 A2983 RMK AO2 SLP103 T01221022 10122 21017 58002
K1K1 
34nm S 
161755Z AUTO 19016G21KT 10SM CLR 11/M03 A2988 RMK AO2 T01061029 10106 20002
KHUT 
35nm SW 
161752Z 18015KT 10SM CLR 12/M03 A2983 RMK AO2 SLP100 T01221028 10122 21028 58004
KAAO 
35nm S 
161754Z AUTO 19017G24KT 10SM CLR 12/M02 A2987 RMK AO2 SLP119 T01171022 10117 20011 58003
TAF
KSLN 
33nm NW 
161724Z 1618/1718 19011KT P6SM FEW250 FM170500 16007KT P6SM SCT200 FM171400 27005KT P6SM BKN030
KHUT 
35nm SW 
161724Z 1618/1718 19016G24KT P6SM SKC FM170300 16011KT P6SM SCT200 FM170700 16008KT P6SM BKN090 FM170900 17007KT P6SM OVC025 FM171400 23005KT P6SM BKN010
NOTAMs
Click for the latest NOTAMs
NOTAMs are issued by the DoD/FAA and will open in a separate window not controlled by AirNav.

 

 
 

FBO, Fuel Providers, and Aircraft Ground Support

  
 Business Name 
 
 Contact 
 
 Services / Description 
 
Fuel Prices
 
Comments
  
City of Hillsboro 620-947-3162
no information available

If you are affiliated with City of Hillsboro and would like to show here your services, contact info, web link, logo, and more, click here
100LL
SS $4.41 
 Updated 14-Dec-2017
 
   write
SS=Self service
Update Fuel Prices
 

Would you like to see your business listed on this page?

 If your business provides an interesting product or service to pilots, flight crews, aircraft, or users of the Alfred Schroeder Field Airport, you should consider listing it here.  To start the listing process, click on the button below
 
Add a business
 

Other Pages about Alfred Schroeder Field Airport

Update a link
 
Copyright © AirNav, LLC. All rights reserved. Privacy Policy  Contact